Time;durP1;ratioP1;P1;durP2;ratioP2;P2;SDS_P1;SDS_P2;PMS_P1;PMS_P2;Temp;Humidity;BMP_temperature;BMP_pressure;BME280_temperature;BME280_humidity;BME280_pressure;Samples;Min_cycle;Max_cycle;Signal;HPM_P1;HPM_P2
2023/03/04 00:01:53;;;;;;;6.68;3.50;;;;;;;4.22;98.46;102768.81;4961212;28;20081;-80
2023/03/04 00:04:19;;;;;;;6.05;3.65;;;;;;;4.21;98.55;102765.31;4961337;28;20050;-80
2023/03/04 00:06:45;;;;;;;4.78;3.13;;;;;;;4.31;99.11;102778.94;4977381;28;20092;-80
2023/03/04 00:09:10;;;;;;;6.70;3.58;;;;;;;4.29;99.28;102773.72;4945375;28;20211;-81
2023/03/04 00:11:36;;;;;;;6.80;3.60;;;;;;;4.27;99.29;102770.28;4961276;28;20384;-80
2023/03/04 00:14:02;;;;;;;9.32;4.07;;;;;;;4.26;99.50;102773.91;4961248;28;20034;-81
2023/03/04 00:16:27;;;;;;;6.68;3.70;;;;;;;4.24;99.80;102781.09;4992968;28;20026;-80
2023/03/04 00:18:54;;;;;;;6.85;3.65;;;;;;;4.23;99.95;102778.50;4976915;28;20539;-81
2023/03/04 00:21:20;;;;;;;4.38;3.10;;;;;;;4.13;100.00;102762.19;4993266;28;20022;-80
2023/03/04 00:23:46;;;;;;;4.43;3.03;;;;;;;4.23;99.56;102779.38;4961145;28;20053;-80
2023/03/04 00:26:13;;;;;;;4.20;2.30;;;;;;;4.27;99.66;102782.72;4993328;28;20037;-80
2023/03/04 00:28:39;;;;;;;3.80;2.95;;;;;;;4.25;98.81;102780.16;4962397;28;20097;-80
2023/03/04 00:31:06;;;;;;;6.72;4.15;;;;;;;4.14;99.36;102764.75;4993417;28;20038;-80
2023/03/04 00:33:32;;;;;;;6.50;3.65;;;;;;;4.18;98.98;102779.63;4976938;28;20134;-81
2023/03/04 00:35:57;;;;;;;4.68;3.33;;;;;;;4.14;100.00;102775.41;4963180;28;20133;-80
2023/03/04 00:38:23;;;;;;;4.70;3.10;;;;;;;4.17;100.00;102785.03;4963727;28;20074;-81
2023/03/04 00:40:49;;;;;;;4.80;2.92;;;;;;;4.15;100.00;102779.81;4993328;28;20027;-80
2023/03/04 00:43:14;;;;;;;5.57;3.55;;;;;;;4.11;100.00;102772.06;4976422;28;20045;-80
2023/03/04 00:45:40;;;;;;;5.43;3.67;;;;;;;4.13;100.00;102780.84;4992931;28;20034;-80
2023/03/04 00:48:06;;;;;;;5.70;3.20;;;;;;;4.08;100.00;102770.44;4960804;28;20038;-80
2023/03/04 00:50:31;;;;;;;5.68;3.83;;;;;;;4.15;100.00;102784.25;4960761;28;20038;-80
2023/03/04 00:52:58;;;;;;;3.88;2.50;;;;;;;4.19;99.62;102783.16;4992755;28;20026;-80
2023/03/04 00:55:24;;;;;;;3.92;2.58;;;;;;;4.26;97.44;102779.22;4994037;28;20042;-84
2023/03/04 00:57:49;;;;;;;3.60;2.90;;;;;;;4.36;95.21;102783.06;4964644;28;20034;-82
2023/03/04 01:00:16;;;;;;;3.95;2.67;;;;;;;4.39;93.55;102790.03;4996784;28;20034;-83
2023/03/04 01:02:42;;;;;;;4.28;2.88;;;;;;;4.36;92.90;102785.72;4980337;28;20125;-83
2023/03/04 01:05:08;;;;;;;4.85;2.72;;;;;;;4.30;93.08;102778.09;4980706;28;20261;-83
2023/03/04 01:07:35;;;;;;;5.22;3.15;;;;;;;4.26;92.45;102767.69;4964320;28;20548;-83
2023/03/04 01:10:01;;;;;;;4.47;2.80;;;;;;;4.40;92.11;102791.75;4964326;28;20026;-82
2023/03/04 01:12:28;;;;;;;2.60;2.30;;;;;;;4.41;91.78;102789.00;4980440;28;20057;-83
2023/03/04 01:14:56;;;;;;;6.30;3.13;;;;;;;4.43;91.35;102798.72;4980622;28;20125;-82
2023/03/04 01:17:23;;;;;;;5.30;3.08;;;;;;;4.44;90.71;102795.94;4996127;28;20465;-81
2023/03/04 01:19:49;;;;;;;5.50;3.22;;;;;;;4.47;90.39;102795.78;4964276;28;20037;-83
2023/03/04 01:22:15;;;;;;;5.60;3.05;;;;;;;4.46;90.16;102801.22;4963965;28;20129;-83
2023/03/04 01:24:42;;;;;;;2.25;2.05;;;;;;;4.47;90.06;102789.59;4996204;28;20030;-81
2023/03/04 01:27:10;;;;;;;2.67;2.10;;;;;;;4.49;89.74;102793.03;4979911;28;20471;-82
2023/03/04 01:29:36;;;;;;;6.40;2.80;;;;;;;4.45;89.97;102795.03;4997005;28;20065;-82
2023/03/04 01:32:04;;;;;;;3.65;2.67;;;;;;;4.42;89.86;102800.53;4963853;28;20113;-83
2023/03/04 01:34:29;;;;;;;4.32;3.15;;;;;;;4.38;90.30;102804.28;4980150;28;20031;-82
2023/03/04 01:36:55;;;;;;;5.25;3.38;;;;;;;4.22;90.37;102787.44;4979591;28;20058;-82
2023/03/04 01:39:21;;;;;;;3.90;2.78;;;;;;;4.29;91.30;102808.34;4963834;28;20034;-82
2023/03/04 01:41:56;;;;;;;4.32;2.75;;;;;;;4.21;92.04;102805.25;4979584;28;20461;-82
2023/03/04 01:44:21;;;;;;;4.68;3.10;;;;;;;4.14;92.98;102809.19;4980890;28;20029;-83
2023/03/04 01:46:54;;;;;;;5.53;2.42;;;;;;;4.12;94.10;102798.59;4963812;28;20101;-81
2023/03/04 01:49:20;;;;;;;5.95;2.88;;;;;;;4.19;94.44;102801.78;4995604;28;20108;-83
2023/03/04 01:51:53;;;;;;;4.22;2.80;;;;;;;4.19;93.71;102799.13;4962353;28;20049;-82
2023/03/04 01:54:20;;;;;;;4.55;3.15;;;;;;;4.16;94.42;102796.66;4978416;28;20477;-82
2023/03/04 01:56:50;;;;;;;2.83;2.00;;;;;;;4.04;95.29;102781.31;4978560;28;20139;-82
2023/03/04 01:59:19;;;;;;;5.15;2.53;;;;;;;4.02;96.50;102785.88;4978114;28;20077;-83
2023/03/04 02:01:54;;;;;;;4.10;2.53;;;;;;;4.04;96.64;102794.63;4962925;28;20022;-81
2023/03/04 02:04:25;;;;;;;3.22;2.55;;;;;;;3.98;97.30;102793.16;4962517;28;20392;-83
2023/03/04 02:06:52;;;;;;;4.68;3.10;;;;;;;3.91;98.54;102789.97;4961748;28;20180;-82
2023/03/04 02:09:18;;;;;;;3.75;2.60;;;;;;;3.87;99.36;102788.44;4962348;28;20124;-81
2023/03/04 02:11:45;;;;;;;4.30;2.72;;;;;;;3.86;100.00;102794.66;4961960;28;20114;-81
2023/03/04 02:14:11;;;;;;;4.18;2.97;;;;;;;3.83;100.00;102797.50;4962199;28;20030;-83
2023/03/04 02:16:38;;;;;;;3.83;2.80;;;;;;;3.69;100.00;102779.63;4994633;28;20137;-83
2023/03/04 02:19:13;;;;;;;4.10;2.80;;;;;;;3.78;100.00;102788.91;4977864;28;20077;-83
2023/03/04 02:21:38;;;;;;;4.38;2.80;;;;;;;3.78;100.00;102788.91;4994414;28;20037;-83
2023/03/04 02:24:10;;;;;;;4.45;2.80;;;;;;;3.80;100.00;102787.03;4962904;28;20034;-83
2023/03/04 02:26:40;;;;;;;4.03;2.72;;;;;;;3.84;100.00;102782.44;4978125;28;20042;-82
2023/03/04 02:29:09;;;;;;;4.13;2.80;;;;;;;3.80;100.00;102778.19;4978285;28;20038;-82
2023/03/04 02:31:39;;;;;;;4.82;2.70;;;;;;;3.83;100.00;102778.88;4978407;28;20044;-81
2023/03/04 02:34:10;;;;;;;3.40;2.45;;;;;;;3.84;100.00;102777.94;4993598;28;20130;-82
2023/03/04 02:36:37;;;;;;;3.58;2.90;;;;;;;3.85;100.00;102779.66;4962070;28;20076;-82
2023/03/04 02:39:06;;;;;;;5.68;2.95;;;;;;;3.85;100.00;102779.66;4961213;28;20125;-82
2023/03/04 02:41:33;;;;;;;3.50;2.88;;;;;;;3.87;100.00;102777.78;4993970;28;20057;-82
2023/03/04 02:43:59;;;;;;;4.72;2.90;;;;;;;3.87;100.00;102777.78;4977411;28;20045;-83
2023/03/04 02:46:25;;;;;;;3.92;2.53;;;;;;;3.80;100.00;102771.06;4961938;28;20034;-82
2023/03/04 02:48:54;;;;;;;4.65;3.10;;;;;;;3.81;100.00;102779.91;4994432;28;20037;-82
2023/03/04 02:51:20;;;;;;;6.05;3.55;;;;;;;3.68;100.00;102761.94;4930847;28;1389998;-83
2023/03/04 02:53:46;;;;;;;5.00;3.22;;;;;;;3.82;100.00;102778.97;4962658;28;20046;-84
2023/03/04 02:56:14;;;;;;;6.32;3.10;;;;;;;3.84;100.00;102777.09;4978316;28;20037;-85
2023/03/04 02:58:52;;;;;;;4.40;3.15;;;;;;;3.76;100.00;102758.88;4979818;28;20381;-82
2023/03/04 03:02:06;;;;;;;5.20;3.65;;;;;;;3.68;100.00;102745.13;4962379;28;20536;-84
2023/03/04 03:04:33;;;;;;;5.28;3.45;;;;;;;3.85;100.00;102771.69;4992409;28;20440;-83
2023/03/04 03:06:59;;;;;;;4.68;3.35;;;;;;;3.81;100.00;102759.50;4961762;28;20042;-83
2023/03/04 03:09:25;;;;;;;4.68;3.30;;;;;;;3.80;100.00;102756.91;4962461;28;20385;-83
2023/03/04 03:11:53;;;;;;;4.63;2.13;;;;;;;3.88;100.00;102762.66;4962450;28;20030;-84
2023/03/04 03:14:22;;;;;;;4.65;3.30;;;;;;;3.96;100.00;102760.44;4977342;28;20362;-84
2023/03/04 03:16:47;;;;;;;5.53;3.70;;;;;;;4.01;100.00;102760.19;4993915;28;20037;-84
2023/03/04 03:19:16;;;;;;;4.47;3.33;;;;;;;4.05;100.00;102759.97;4977130;28;20043;-83
2023/03/04 03:21:49;;;;;;;3.08;2.22;;;;;;;4.03;100.00;102745.03;4961976;28;20117;-83
2023/03/04 03:24:19;;;;;;;4.68;2.22;;;;;;;4.11;99.81;102764.09;4978182;28;20030;-82
2023/03/04 03:26:44;;;;;;;3.90;2.15;;;;;;;4.16;99.12;102759.38;4978048;28;20045;-83
2023/03/04 03:29:10;;;;;;;5.10;3.22;;;;;;;4.20;99.08;102755.56;4961915;28;20050;-84
2023/03/04 03:31:39;;;;;;;5.55;3.22;;;;;;;4.13;98.80;102748.88;4977152;28;20077;-83
2023/03/04 03:34:04;;;;;;;5.03;2.28;;;;;;;4.15;99.25;102760.28;4961783;28;20040;-83
2023/03/04 03:36:31;;;;;;;5.95;3.13;;;;;;;4.08;98.98;102749.13;4993650;28;20491;-82
2023/03/04 03:39:00;;;;;;;8.20;3.60;;;;;;;4.13;99.20;102764.88;4993794;28;20401;-82
2023/03/04 03:41:28;;;;;;;3.38;2.50;;;;;;;4.08;99.37;102753.63;4977634;28;20129;-81
2023/03/04 03:43:54;;;;;;;2.60;1.98;;;;;;;4.11;99.63;102758.75;4961401;28;20440;-83
2023/03/04 03:46:19;;;;;;;7.85;3.60;;;;;;;4.10;99.64;102762.34;4961595;28;20096;-84
2023/03/04 03:48:46;;;;;;;6.18;3.50;;;;;;;4.10;100.00;102767.66;4977947;28;20116;-83
2023/03/04 03:51:11;;;;;;;3.97;3.00;;;;;;;4.01;100.00;102750.41;4961427;28;20092;-81
2023/03/04 03:53:37;;;;;;;5.70;3.83;;;;;;;4.04;100.00;102765.34;4976696;28;20401;-83
2023/03/04 03:56:03;;;;;;;7.15;3.42;;;;;;;4.01;100.00;102768.19;4993451;28;20030;-83
2023/03/04 03:58:29;;;;;;;6.60;3.00;;;;;;;3.96;100.00;102760.44;4961094;28;20034;-82
2023/03/04 04:00:55;;;;;;;3.67;2.53;;;;;;;3.95;100.00;102761.41;4960480;28;20046;-83
2023/03/04 04:03:20;;;;;;;6.18;3.42;;;;;;;3.92;100.00;102751.78;4961384;28;20030;-84
2023/03/04 04:05:49;;;;;;;5.30;3.80;;;;;;;3.94;100.00;102754.34;4960704;28;20385;-82
2023/03/04 04:08:15;;;;;;;5.50;2.78;;;;;;;3.95;100.00;102748.94;4977016;28;20493;-83
2023/03/04 04:10:42;;;;;;;6.22;3.50;;;;;;;3.99;100.00;102756.75;4977246;28;20046;-81
2023/03/04 04:13:09;;;;;;;4.05;2.92;;;;;;;4.02;100.00;102761.91;4960039;28;20445;-82
2023/03/04 04:15:37;;;;;;;7.45;3.85;;;;;;;4.00;100.00;102761.16;4977155;28;20030;-83
2023/03/04 04:18:04;;;;;;;5.20;3.20;;;;;;;4.00;100.00;102763.81;4977070;28;20030;-81
2023/03/04 04:20:30;;;;;;;5.95;2.83;;;;;;;3.96;100.00;102755.97;4960894;28;20043;-83
2023/03/04 04:22:55;;;;;;;4.85;2.88;;;;;;;3.94;100.00;102752.56;4993412;28;20062;-83
2023/03/04 04:25:21;;;;;;;4.85;3.20;;;;;;;3.96;100.00;102758.63;4960780;28;20038;-85
2023/03/04 04:27:47;;;;;;;8.00;3.30;;;;;;;3.95;100.00;102754.28;4993123;28;20088;-81
2023/03/04 04:30:16;;;;;;;5.15;3.42;;;;;;;3.95;100.00;102756.94;4994206;28;20034;-85
2023/03/04 04:32:42;;;;;;;6.90;3.08;;;;;;;3.93;100.00;102756.16;4976917;28;20045;-84
2023/03/04 04:35:11;;;;;;;4.95;3.20;;;;;;;3.81;100.00;102735.53;4961110;28;20042;-84
2023/03/04 04:37:37;;;;;;;4.18;2.55;;;;;;;3.92;100.00;102746.47;4960353;28;20138;-84
2023/03/04 04:40:06;;;;;;;4.85;3.42;;;;;;;3.90;100.00;102750.16;4976909;28;20069;-82
2023/03/04 04:42:32;;;;;;;4.53;2.83;;;;;;;3.91;100.00;102751.84;4992931;28;20030;-80
2023/03/04 04:44:57;;;;;;;5.30;3.58;;;;;;;3.90;100.00;102752.81;4992454;28;20535;-82
2023/03/04 04:47:23;;;;;;;5.45;3.10;;;;;;;3.92;100.00;102765.09;4992649;28;20113;-82
2023/03/04 04:49:51;;;;;;;7.85;3.42;;;;;;;3.88;100.00;102763.53;4960718;28;20065;-84
2023/03/04 04:52:17;;;;;;;5.97;3.30;;;;;;;3.88;100.00;102768.00;4992196;28;20030;-84
2023/03/04 04:54:45;;;;;;;6.88;2.85;;;;;;;3.87;100.00;102764.47;4976749;28;20473;-83
2023/03/04 04:57:11;;;;;;;5.85;2.95;;;;;;;3.89;100.00;102765.25;4976987;28;20034;-85
2023/03/04 04:59:37;;;;;;;5.80;3.92;;;;;;;3.92;100.00;102762.44;4960872;28;20477;-84
2023/03/04 05:02:03;;;;;;;6.45;3.45;;;;;;;3.91;100.00;102768.69;4976949;28;20046;-84
2023/03/04 05:04:29;;;;;;;4.63;3.05;;;;;;;3.90;100.00;102763.44;4992735;28;20466;-84
2023/03/04 05:06:54;;;;;;;5.40;3.33;;;;;;;3.88;100.00;102763.53;4976895;28;20034;-84
2023/03/04 05:09:21;;;;;;;3.80;2.60;;;;;;;3.86;100.00;102760.06;4960517;28;20413;-84
2023/03/04 05:11:50;;;;;;;6.25;2.17;;;;;;;3.90;100.00;102761.66;4976558;28;20038;-83
2023/03/04 05:14:16;;;;;;;3.53;2.15;;;;;;;3.90;100.00;102753.66;4992676;28;20452;-84
2023/03/04 05:16:41;;;;;;;4.70;2.90;;;;;;;3.87;99.62;102755.63;4960221;28;20436;-85
2023/03/04 05:19:07;;;;;;;4.13;2.63;;;;;;;3.88;99.85;102763.53;4976391;28;20030;-84
2023/03/04 05:21:33;;;;;;;5.18;2.78;;;;;;;3.80;99.67;102752.44;4992093;28;20424;-84
2023/03/04 05:24:00;;;;;;;2.88;2.38;;;;;;;3.86;99.17;102768.06;4959937;28;20052;-82
2023/03/04 05:26:26;;;;;;;4.75;2.70;;;;;;;3.87;98.20;102760.97;4991982;28;20026;-81
2023/03/04 05:28:51;;;;;;;3.50;2.53;;;;;;;3.85;97.75;102766.34;4976345;28;20488;-84
2023/03/04 05:31:17;;;;;;;6.38;3.33;;;;;;;3.84;97.60;102762.00;4960054;28;20034;-84
2023/03/04 05:33:43;;;;;;;3.92;2.25;;;;;;;3.79;98.27;102761.38;4975950;28;20455;-84
2023/03/04 05:36:09;;;;;;;4.15;2.72;;;;;;;3.67;97.63;102738.94;4944614;28;20088;-84
2023/03/04 05:38:36;;;;;;;5.18;2.72;;;;;;;3.77;97.79;102762.41;4976162;28;20065;-82
2023/03/04 05:41:04;;;;;;;4.93;3.03;;;;;;;3.73;98.29;102759.03;4976828;28;20477;-82
2023/03/04 05:43:30;;;;;;;5.57;2.72;;;;;;;3.75;97.80;102762.47;4963912;28;20495;-84
2023/03/04 05:45:56;;;;;;;4.60;2.53;;;;;;;3.74;98.07;102758.09;4963848;28;20120;-83
2023/03/04 05:48:24;;;;;;;2.78;2.33;;;;;;;3.77;97.41;102755.28;4963935;28;20093;-84
2023/03/04 05:50:58;;;;;;;2.47;1.67;;;;;;;3.80;97.36;102760.41;4963033;28;20073;-84
2023/03/04 05:53:24;;;;;;;4.43;3.15;;;;;;;3.81;97.16;102751.50;4995692;28;20030;-82
2023/03/04 05:55:50;;;;;;;4.82;3.15;;;;;;;3.85;97.05;102760.19;4996894;28;20034;-81
2023/03/04 05:58:19;;;;;;;4.68;3.15;;;;;;;3.86;97.45;102760.06;4995054;28;20034;-83
2023/03/04 06:00:46;;;;;;;3.67;2.30;;;;;;;3.82;97.72;102747.91;4963520;28;20122;-81
2023/03/04 06:03:16;;;;;;;4.20;2.53;;;;;;;3.84;97.39;102756.66;4963304;28;20034;-83
2023/03/04 06:05:42;;;;;;;4.57;2.60;;;;;;;3.67;98.23;102736.28;4995326;28;20022;-82
2023/03/04 06:08:09;;;;;;;4.00;2.40;;;;;;;3.85;97.68;102768.16;4995777;28;20037;-83
2023/03/04 06:10:34;;;;;;;5.18;3.38;;;;;;;3.80;97.77;102762.22;4947209;28;20074;-83
2023/03/04 06:13:00;;;;;;;6.07;3.75;;;;;;;3.75;97.64;102759.81;4995058;28;20097;-84
2023/03/04 06:15:26;;;;;;;5.75;3.28;;;;;;;3.79;97.77;102766.69;4995308;28;20022;-82
2023/03/04 06:17:51;;;;;;;6.65;3.22;;;;;;;3.77;97.60;102765.91;4994536;28;20042;-83
2023/03/04 06:20:19;;;;;;;4.90;2.92;;;;;;;3.77;97.93;102767.72;4979793;28;20474;-83
2023/03/04 06:22:48;;;;;;;5.85;3.83;;;;;;;3.77;97.58;102773.03;4995329;28;20121;-83
2023/03/04 06:25:14;;;;;;;5.05;3.10;;;;;;;3.77;97.39;102763.25;4995027;28;20026;-83
2023/03/04 06:27:42;;;;;;;4.70;2.83;;;;;;;3.78;96.70;102762.28;4946862;28;20457;-82
2023/03/04 06:30:09;;;;;;;4.78;2.95;;;;;;;3.84;95.32;102759.31;4978650;28;20027;-84
2023/03/04 06:32:37;;;;;;;4.55;3.30;;;;;;;3.89;93.92;102767.94;4978943;28;20038;-81
2023/03/04 06:35:03;;;;;;;6.13;2.85;;;;;;;3.92;93.07;102765.09;4963419;28;20101;-82
2023/03/04 06:37:29;;;;;;;8.10;3.67;;;;;;;3.96;91.78;102766.63;4978568;28;20053;-82
2023/03/04 06:39:55;;;;;;;5.32;3.30;;;;;;;3.88;91.39;102757.34;4962759;28;20485;-84
2023/03/04 06:42:21;;;;;;;5.18;3.45;;;;;;;3.92;92.25;102766.91;4996260;28;20037;-83
2023/03/04 06:44:48;;;;;;;5.20;3.95;;;;;;;3.89;91.95;102765.25;4995517;28;20031;-81
2023/03/04 06:47:17;;;;;;;6.20;3.33;;;;;;;3.77;92.04;102749.94;4978630;28;20485;-83
2023/03/04 06:49:43;;;;;;;3.53;2.90;;;;;;;3.86;92.18;102768.06;4994801;28;20031;-84
2023/03/04 06:52:10;;;;;;;7.45;3.50;;;;;;;3.84;92.23;102769.13;4977426;28;20126;-83
2023/03/04 06:54:37;;;;;;;5.68;3.10;;;;;;;3.82;92.32;102766.53;4993841;28;20393;-81
2023/03/04 06:57:03;;;;;;;6.03;3.05;;;;;;;3.78;92.35;102756.97;4994142;28;20031;-83
2023/03/04 06:59:29;;;;;;;5.00;3.05;;;;;;;3.75;93.15;102767.78;4961910;28;20038;-84
2023/03/04 07:01:55;;;;;;;4.45;3.03;;;;;;;3.73;94.01;102778.53;4978014;28;20210;-81
2023/03/04 07:04:22;;;;;;;4.88;3.30;;;;;;;3.71;94.25;102776.91;4994128;28;20030;-83
2023/03/04 07:06:50;;;;;;;6.93;3.00;;;;;;;3.68;94.55;102772.59;4994578;28;20544;-85
2023/03/04 07:09:17;;;;;;;5.22;2.88;;;;;;;3.66;94.32;102770.97;4961939;28;20469;-83
2023/03/04 07:11:43;;;;;;;5.50;3.30;;;;;;;3.66;95.00;102774.47;4962539;28;20480;-84
2023/03/04 07:14:09;;;;;;;5.35;3.50;;;;;;;3.62;95.40;102775.56;4993635;28;20109;-83
2023/03/04 07:16:35;;;;;;;4.15;2.42;;;;;;;3.55;95.66;102773.28;4993824;28;20038;-83
2023/03/04 07:19:03;;;;;;;5.18;2.65;;;;;;;3.53;96.25;102779.56;4995276;28;20496;-83
2023/03/04 07:21:30;;;;;;;5.10;3.15;;;;;;;3.33;96.75;102739.84;4962136;28;20026;-83
2023/03/04 07:23:56;;;;;;;6.35;3.17;;;;;;;3.53;96.90;102778.72;4994712;28;20500;-83
2023/03/04 07:26:22;;;;;;;5.47;3.00;;;;;;;3.54;96.74;102775.09;4962023;28;20430;-84
2023/03/04 07:28:47;;;;;;;3.95;3.10;;;;;;;3.57;96.14;102768.75;4961906;28;20489;-83
2023/03/04 07:31:42;;;;;;;4.10;2.95;;;;;;;3.61;96.17;102788.97;4961715;28;20125;-82
2023/03/04 07:34:12;;;;;;;7.65;3.42;;;;;;;3.57;95.92;102776.75;4993469;28;20594;-81
2023/03/04 07:36:38;;;;;;;4.35;2.63;;;;;;;3.58;96.37;102778.47;4961359;28;20038;-82
2023/03/04 07:39:04;;;;;;;4.00;2.55;;;;;;;3.59;96.35;102783.69;4995032;28;20038;-83
2023/03/04 07:41:30;;;;;;;3.65;2.55;;;;;;;3.59;95.60;102780.19;4977112;28;20026;-81
2023/03/04 07:43:57;;;;;;;4.38;2.80;;;;;;;3.64;94.88;102786.97;4977467;28;20050;-84
2023/03/04 07:46:25;;;;;;;4.28;3.00;;;;;;;3.67;94.35;102783.31;4977627;28;20547;-84
2023/03/04 07:48:55;;;;;;;5.75;2.80;;;;;;;3.73;94.32;102793.59;4961672;28;20127;-83
2023/03/04 07:51:23;;;;;;;3.65;2.10;;;;;;;3.75;93.32;102789.94;4960803;28;20038;-83
2023/03/04 07:53:51;;;;;;;2.45;1.85;;;;;;;3.78;92.94;102790.72;4993615;28;20053;-83
2023/03/04 07:56:21;;;;;;;4.30;2.90;;;;;;;3.82;92.24;102801.13;4993267;28;20053;-84
2023/03/04 07:58:47;;;;;;;3.72;2.80;;;;;;;3.81;91.71;102799.41;4992814;28;20512;-84
2023/03/04 08:01:18;;;;;;;5.65;2.67;;;;;;;3.87;91.56;102795.56;4960990;28;20034;-84
2023/03/04 08:03:44;;;;;;;4.68;2.63;;;;;;;3.87;91.19;102798.22;4960644;28;20034;-83
2023/03/04 08:06:18;;;;;;;2.78;2.40;;;;;;;3.88;90.79;102791.94;4976496;28;20034;-83
2023/03/04 08:08:54;;;;;;;4.00;2.38;;;;;;;3.92;90.59;102796.19;4976707;28;20042;-84
2023/03/04 08:11:51;;;;;;;4.43;2.20;;;;;;;3.92;90.15;102783.72;4960655;28;20533;-84
2023/03/04 08:14:34;;;;;;;4.20;2.63;;;;;;;3.97;88.88;102792.31;4978244;28;20133;-81
2023/03/04 08:16:59;;;;;;;7.50;2.78;;;;;;;4.11;88.31;102796.03;4994170;28;20041;-82
2023/03/04 08:19:26;;;;;;;10.32;5.28;;;;;;;4.10;87.62;102791.63;4992572;28;20497;-84
2023/03/04 08:21:51;;;;;;;15.82;8.75;;;;;;;4.14;87.41;102801.19;4976048;28;20038;-82
2023/03/04 08:24:17;;;;;;;9.32;5.30;;;;;;;4.16;87.54;102801.97;4976366;28;20042;-82
2023/03/04 08:26:45;;;;;;;6.75;4.03;;;;;;;4.16;87.55;102792.16;4961120;28;20027;-83
2023/03/04 08:29:16;;;;;;;4.63;3.08;;;;;;;4.20;87.87;102800.84;4961301;28;20101;-83
2023/03/04 08:31:45;;;;;;;5.60;2.53;;;;;;;4.18;87.45;102782.31;4977113;28;20026;-85
2023/03/04 08:34:13;;;;;;;5.47;3.08;;;;;;;4.24;87.85;102797.09;4976985;28;20026;-82
2023/03/04 08:36:41;;;;;;;1.50;1.40;;;;;;;4.26;87.06;102789.88;4976882;28;20022;-83
2023/03/04 08:39:08;;;;;;;3.10;2.05;;;;;;;4.33;86.93;102795.69;4960764;28;20057;-83
2023/03/04 08:41:34;;;;;;;7.63;3.00;;;;;;;4.33;86.65;102790.38;4976620;28;20053;-83
2023/03/04 08:44:01;;;;;;;4.43;2.75;;;;;;;4.39;86.30;102796.22;4992932;28;20547;-84
2023/03/04 08:46:27;;;;;;;4.78;3.28;;;;;;;4.35;86.01;102778.69;4960925;28;20033;-82
2023/03/04 08:48:56;;;;;;;5.15;2.92;;;;;;;4.52;85.52;102795.53;4992648;28;20034;-81
2023/03/04 08:51:22;;;;;;;4.25;2.33;;;;;;;4.52;86.10;102803.53;4960441;28;20042;-83
2023/03/04 08:53:48;;;;;;;4.05;3.05;;;;;;;4.54;85.67;102799.81;4992785;28;20034;-82
2023/03/04 08:56:14;;;;;;;3.25;2.05;;;;;;;4.56;86.22;102797.94;4960510;28;20030;-81
2023/03/04 08:58:43;;;;;;;3.85;2.80;;;;;;;4.58;85.60;102795.19;4976291;28;20105;-82
2023/03/04 09:01:14;;;;;;;7.30;4.32;;;;;;;4.63;85.24;102802.00;4976475;28;20031;-82
2023/03/04 09:03:42;;;;;;;4.88;2.47;;;;;;;4.72;83.68;102797.94;4976853;28;20061;-83
2023/03/04 09:06:16;;;;;;;5.68;2.80;;;;;;;4.77;83.07;102801.19;4976901;28;20058;-84
2023/03/04 09:08:43;;;;;;;5.43;2.90;;;;;;;4.71;83.62;102780.22;4960341;28;20044;-83
2023/03/04 09:11:09;;;;;;;4.00;2.58;;;;;;;4.81;82.87;102794.72;4993545;28;20027;-83
2023/03/04 09:13:36;;;;;;;5.28;2.97;;;;;;;4.88;83.09;102805.91;4960320;28;20045;-84
2023/03/04 09:16:10;;;;;;;4.78;2.85;;;;;;;4.91;82.86;102807.53;4960572;28;20125;-83
2023/03/04 09:18:36;;;;;;;2.75;1.98;;;;;;;4.93;83.78;102801.16;4980216;28;20130;-83
2023/03/04 09:21:01;;;;;;;4.57;3.03;;;;;;;4.99;83.51;102799.94;4963948;28;20122;-83
2023/03/04 09:23:27;;;;;;;3.88;2.55;;;;;;;5.04;83.42;102800.53;4995943;28;20049;-82
2023/03/04 09:25:54;;;;;;;4.57;2.80;;;;;;;5.05;83.59;102802.25;4980227;28;20030;-81
2023/03/04 09:28:23;;;;;;;3.72;2.05;;;;;;;4.99;83.17;102784.81;4997544;28;20027;-81
2023/03/04 09:30:52;;;;;;;4.80;3.53;;;;;;;5.14;81.66;102803.53;4996134;28;20026;-83
2023/03/04 09:33:18;;;;;;;4.43;3.05;;;;;;;5.07;81.94;102795.88;4963888;28;20053;-81
2023/03/04 09:35:44;;;;;;;2.92;2.08;;;;;;;5.00;81.76;102781.22;4996285;28;20049;-81
2023/03/04 09:38:12;;;;;;;3.05;2.00;;;;;;;5.22;80.34;102812.78;4963395;28;20466;-83
2023/03/04 09:40:50;;;;;;;3.55;2.60;;;;;;;5.23;79.81;102813.66;4980042;28;20154;-83
2023/03/04 09:43:28;;;;;;;3.35;2.67;;;;;;;5.25;80.49;102809.94;4949664;28;20049;-84
2023/03/04 09:45:57;;;;;;;2.78;2.08;;;;;;;5.27;80.06;102799.19;4995573;28;20092;-85
2023/03/04 09:48:26;;;;;;;3.90;2.08;;;;;;;5.39;77.66;102809.13;4996011;28;20039;-91
2023/03/04 09:51:10;;;;;;;3.03;1.73;;;;;;;5.44;76.03;102803.50;4979708;28;20076;-86
2023/03/04 09:53:58;;;;;;;2.58;1.98;;;;;;;5.47;75.68;102803.31;4994068;28;20389;-82
2023/03/04 09:56:25;;;;;;;3.50;2.95;;;;;;;5.49;75.21;102799.59;4961513;28;20362;-83
2023/03/04 09:58:56;;;;;;;5.85;2.60;;;;;;;5.43;75.20;102783.13;4993304;28;20460;-83
2023/03/04 10:01:34;;;;;;;3.08;2.13;;;;;;;5.54;75.43;102796.66;4977264;28;20034;-82
2023/03/04 10:04:21;;;;;;;3.33;2.78;;;;;;;5.40;74.96;102759.28;4977371;28;20413;-83
2023/03/04 10:06:53;;;;;;;3.28;2.42;;;;;;;5.67;74.28;102786.97;4961685;28;20473;-83
2023/03/04 10:09:45;;;;;;;3.67;2.17;;;;;;;5.75;75.18;102788.31;4979999;28;20135;-83
2023/03/04 10:12:13;;;;;;;3.85;2.60;;;;;;;5.82;75.56;102784.28;4963471;28;20495;-83
2023/03/04 10:14:51;;;;;;;3.03;2.08;;;;;;;5.91;76.15;102789.94;4963429;28;20080;-82
2023/03/04 10:17:21;;;;;;;4.78;3.10;;;;;;;5.96;74.99;102795.03;4963654;28;20042;-83
2023/03/04 10:19:54;;;;;;;3.65;2.40;;;;;;;5.93;72.56;102781.84;4995370;28;20062;-83
2023/03/04 10:22:43;;;;;;;2.83;1.88;;;;;;;5.98;72.53;102794.91;4979333;28;20053;-83
2023/03/04 10:25:24;;;;;;;2.45;1.45;;;;;;;5.76;71.46;102757.97;4979266;28;20038;-83
2023/03/04 10:28:11;;;;;;;4.32;2.25;;;;;;;5.97;70.62;102794.06;4979094;28;20109;-84
2023/03/04 10:31:08;;;;;;;5.18;2.88;;;;;;;6.02;70.85;102791.97;4979366;28;20112;-83
2023/03/04 10:33:37;;;;;;;2.97;2.35;;;;;;;6.03;71.06;102787.47;4996250;28;20027;-84
2023/03/04 10:36:04;;;;;;;3.88;2.70;;;;;;;6.11;68.74;102796.72;4996196;28;20527;-83
2023/03/04 10:38:33;;;;;;;4.85;2.95;;;;;;;6.13;69.60;102802.81;4996045;28;20038;-83
2023/03/04 10:40:59;;;;;;;6.10;3.47;;;;;;;6.16;69.93;102804.44;4995119;28;20034;-83
2023/03/04 10:43:25;;;;;;;4.85;2.95;;;;;;;6.11;69.13;102790.50;4978999;28;20125;-84
2023/03/04 10:45:56;;;;;;;3.15;2.60;;;;;;;6.13;68.79;102802.81;4963023;28;20104;-83
2023/03/04 10:48:30;;;;;;;4.78;4.30;;;;;;;6.16;69.27;102805.28;4994541;28;20045;-83
2023/03/04 10:51:22;;;;;;;3.70;2.70;;;;;;;6.23;69.95;102804.91;4994918;28;20030;-83
2023/03/04 10:53:50;;;;;;;4.60;3.10;;;;;;;6.26;69.47;102810.06;4962361;28;20469;-83
2023/03/04 10:56:34;;;;;;;5.35;3.38;;;;;;;6.25;66.44;102803.00;4962313;28;20128;-84
2023/03/04 10:59:22;;;;;;;4.38;3.65;;;;;;;6.18;67.04;102801.69;4995472;28;20389;-84
2023/03/04 11:01:50;;;;;;;5.07;3.75;;;;;;;6.16;67.08;102794.59;4987591;28;20039;-83
2023/03/04 11:04:21;;;;;;;3.67;2.95;;;;;;;6.15;68.05;102798.25;4946230;28;20051;-83
2023/03/04 11:06:47;;;;;;;4.80;3.38;;;;;;;6.13;68.36;102801.97;4978359;28;20044;-80
2023/03/04 11:09:24;;;;;;;5.45;3.65;;;;;;;6.07;67.36;102795.19;4994492;28;20052;-83
2023/03/04 11:11:52;;;;;;;5.50;3.70;;;;;;;6.08;67.48;102785.38;4962118;28;20448;-84
2023/03/04 11:14:29;;;;;;;5.50;3.95;;;;;;;6.12;67.35;102785.09;4962622;28;20433;-80
2023/03/04 11:16:54;;;;;;;4.82;3.58;;;;;;;6.18;67.01;102781.16;4994468;28;20022;-82
2023/03/04 11:19:22;;;;;;;5.78;3.47;;;;;;;6.19;67.14;102784.69;4993892;28;20061;-82
2023/03/04 11:21:48;;;;;;;3.65;2.40;;;;;;;6.20;67.11;102784.59;4992397;28;20436;-80
2023/03/04 11:24:20;;;;;;;5.50;3.88;;;;;;;6.26;67.12;102784.19;4960003;28;20034;-83
2023/03/04 11:26:52;;;;;;;5.50;4.17;;;;;;;6.35;66.38;102788.09;4977561;28;20049;-82
2023/03/04 11:29:41;;;;;;;6.05;3.47;;;;;;;6.35;65.68;102774.72;4977531;28;20026;-82
2023/03/04 11:32:09;;;;;;;5.25;3.88;;;;;;;6.38;65.88;102782.56;4962000;28;20034;-84
2023/03/04 11:34:42;;;;;;;4.50;2.90;;;;;;;6.35;64.94;102774.72;4993885;28;20022;-80
2023/03/04 11:37:42;;;;;;;4.05;3.22;;;;;;;6.43;64.48;102783.13;4961931;28;20045;-84
2023/03/04 11:40:28;;;;;;;6.38;3.67;;;;;;;6.20;63.87;102747.19;4976985;28;20489;-84